KATY/ATY METAR and TAF weather

Enter ICAO airport designator
Station Type Date Time Source
KATY METAR 2021/07/24 20:53 UTC NOAA

KATY 242053Z AUTO 29008KT 10SM CLR 31/13 A2999 RMK AO2 SLP143 T03110133 58004


Station Type Date Time Source
KATY Decoded METAR 2021/07/24 20:53 UTC NOAA

WATERTOWN MUNICIPAL AIRPORT, SD, United States (KATY) 44-54N 097-09W 532M
Jul 24, 2021 - 04:53 PM EDT / 2021.07.24 2053 UTC
Wind: from the WNW (290 degrees) at 9 MPH (8 KT):0
Visibility: 10 mile(s):0
Sky conditions: clear
Temperature: 88.0 F (31.1 C)
Dew Point: 55.9 F (13.3 C)
Relative Humidity: 33%
Pressure (altimeter): 29.99 in. Hg (1015 hPa)
Pressure tendency: 0.01 inches (0.4 hPa) lower than three hours ago
ob: KATY 242053Z AUTO 29008KT 10SM CLR 31/13 A2999 RMK AO2 SLP143 T03110133 58004
cycle: 21

Station Type Date Time Source
KATY TAF 2021/07/24 18:24 UTC NOAA

TAF KATY 241720Z 2418/2518 30006KT P6SM SKC
FM251700 19005KT P6SM SCT250

Example: see airport list